Time;durP1;ratioP1;P1;durP2;ratioP2;P2;SDS_P1;SDS_P2;PMS_P1;PMS_P2;Temp;Humidity;BMP_temperature;BMP_pressure;BME280_temperature;BME280_humidity;BME280_pressure;Samples;Min_cycle;Max_cycle;Signal;HPM_P1;HPM_P2
2021/05/18 00:01:44;;;;;;;0.87;0.87;;;;;;;;;;5076368;28;20216;-91
2021/05/18 00:04:10;;;;;;;1.00;0.90;;;;;;;;;;5076209;28;20190;-90
2021/05/18 00:06:36;;;;;;;0.80;0.80;;;;;;;;;;5094179;28;20205;-91
2021/05/18 00:11:48;;;;;;;1.33;0.87;;;;;;;;;;5076083;28;20238;-90
2021/05/18 00:14:16;;;;;;;1.80;0.80;;;;;;;;;;5076364;28;20665;-91
2021/05/18 00:16:42;;;;;;;0.47;0.47;;;;;;;;;;5076445;28;20186;-91
2021/05/18 00:19:09;;;;;;;0.73;0.70;;;;;;;;;;5076405;28;20206;-90
2021/05/18 00:21:35;;;;;;;2.80;1.23;;;;;;;;;;5076276;28;20182;-92
2021/05/18 00:24:01;;;;;;;0.57;0.57;;;;;;;;;;5094915;28;20178;-92
2021/05/18 00:26:29;;;;;;;0.60;0.60;;;;;;;;;;5076330;28;20560;-92
2021/05/18 00:28:55;;;;;;;2.50;0.60;;;;;;;;;;5076225;28;20686;-91
2021/05/18 00:31:21;;;;;;;0.43;0.43;;;;;;;;;;5079123;28;20197;-89
2021/05/18 00:33:47;;;;;;;1.10;0.63;;;;;;;;;;5080163;28;20715;-89
2021/05/18 00:36:13;;;;;;;0.53;0.53;;;;;;;;;;5080169;28;20198;-92
2021/05/18 00:38:40;;;;;;;0.83;0.60;;;;;;;;;;5080228;28;20194;-89
2021/05/18 00:41:06;;;;;;;0.43;0.40;;;;;;;;;;5079956;28;20212;-90
2021/05/18 00:43:34;;;;;;;0.50;0.50;;;;;;;;;;5079308;28;20213;-91
2021/05/18 00:46:00;;;;;;;1.70;0.50;;;;;;;;;;5079639;28;20239;-90
2021/05/18 00:48:26;;;;;;;0.53;0.53;;;;;;;;;;5097548;28;20197;-89
2021/05/18 00:50:54;;;;;;;1.53;0.40;;;;;;;;;;5076119;28;20811;-89
2021/05/18 00:53:21;;;;;;;1.23;0.50;;;;;;;;;;5076534;28;20206;-88
2021/05/18 00:55:50;;;;;;;0.50;0.50;;;;;;;;;;5075878;28;20191;-89
2021/05/18 00:58:30;;;;;;;1.60;0.33;;;;;;;;;;5076630;28;20195;-90
2021/05/18 01:00:58;;;;;;;0.57;0.57;;;;;;;;;;5076133;28;20186;-90
2021/05/18 01:03:24;;;;;;;0.60;0.43;;;;;;;;;;5076069;28;20195;-90
2021/05/18 01:08:35;;;;;;;0.50;0.43;;;;;;;;;;5075836;28;20264;-93
2021/05/18 01:11:01;;;;;;;0.40;0.40;;;;;;;;;;5075883;28;20206;-91
2021/05/18 01:13:29;;;;;;;0.73;0.40;;;;;;;;;;5077149;28;20650;-90
2021/05/18 01:15:57;;;;;;;0.53;0.53;;;;;;;;;;5075556;28;20203;-90
2021/05/18 01:18:23;;;;;;;0.57;0.53;;;;;;;;;;5075713;28;20195;-90
2021/05/18 01:20:57;;;;;;;0.50;0.50;;;;;;;;;;5075386;28;20285;-91
2021/05/18 01:23:24;;;;;;;3.10;0.60;;;;;;;;;;5076574;28;20186;-90
2021/05/18 01:25:50;;;;;;;0.40;0.40;;;;;;;;;;5075463;28;20578;-90
2021/05/18 01:28:16;;;;;;;0.60;0.50;;;;;;;;;;5076838;28;20621;-90
2021/05/18 01:30:43;;;;;;;0.60;0.60;;;;;;;;;;5076741;28;20175;-91
2021/05/18 01:33:09;;;;;;;0.30;0.30;;;;;;;;;;5075231;28;20559;-90
2021/05/18 01:35:36;;;;;;;1.00;0.70;;;;;;;;;;5074699;28;20202;-90
2021/05/18 01:38:06;;;;;;;0.50;0.50;;;;;;;;;;5075130;28;20187;-90
2021/05/18 01:43:20;;;;;;;0.57;0.57;;;;;;;;;;5050417;28;20728;-90
2021/05/18 01:45:47;;;;;;;3.50;0.70;;;;;;;;;;5075682;28;20195;-90
2021/05/18 01:48:15;;;;;;;0.80;0.80;;;;;;;;;;5075114;28;20215;-89
2021/05/18 01:50:42;;;;;;;0.77;0.77;;;;;;;;;;5074667;28;20331;-90
2021/05/18 01:53:10;;;;;;;0.97;0.70;;;;;;;;;;5074639;28;20207;-89
2021/05/18 01:55:39;;;;;;;0.70;0.70;;;;;;;;;;5074969;28;20191;-90
2021/05/18 01:58:05;;;;;;;0.63;0.63;;;;;;;;;;5075005;28;20229;-90
2021/05/18 02:00:32;;;;;;;1.27;0.80;;;;;;;;;;5074773;28;20203;-90
2021/05/18 02:02:59;;;;;;;0.60;0.50;;;;;;;;;;5075932;28;20174;-90
2021/05/18 02:05:28;;;;;;;0.63;0.60;;;;;;;;;;5074780;28;20673;-90
2021/05/18 02:07:56;;;;;;;0.73;0.73;;;;;;;;;;5074924;28;20705;-90
2021/05/18 02:10:23;;;;;;;1.90;0.87;;;;;;;;;;5074584;28;20199;-90
2021/05/18 02:12:49;;;;;;;0.70;0.70;;;;;;;;;;5074391;28;20237;-90
2021/05/18 02:15:25;;;;;;;0.70;0.70;;;;;;;;;;5074279;28;20199;-91
2021/05/18 02:20:56;;;;;;;1.50;0.97;;;;;;;;;;5025014;28;20217;-91
2021/05/18 02:26:07;;;;;;;2.40;0.70;;;;;;;;;;5074381;28;20245;-90
2021/05/18 02:28:34;;;;;;;1.13;0.80;;;;;;;;;;5074301;28;20214;-89
2021/05/18 02:31:00;;;;;;;1.00;0.67;;;;;;;;;;5074463;28;20206;-90
2021/05/18 02:33:26;;;;;;;2.63;0.90;;;;;;;;;;5075735;28;20689;-90
2021/05/18 02:35:52;;;;;;;0.83;0.80;;;;;;;;;;5074666;28;20202;-90
2021/05/18 02:38:18;;;;;;;0.63;0.63;;;;;;;;;;5074209;28;20210;-90
2021/05/18 02:40:45;;;;;;;1.40;0.90;;;;;;;;;;5074735;28;20216;-90
2021/05/18 02:43:15;;;;;;;2.27;1.10;;;;;;;;;;5075209;28;20183;-90
2021/05/18 02:45:50;;;;;;;1.53;1.07;;;;;;;;;;5073797;28;20202;-90
2021/05/18 02:51:09;;;;;;;1.17;1.00;;;;;;;;;;5021960;28;20284;-91
2021/05/18 02:53:35;;;;;;;3.23;0.80;;;;;;;;;;5056928;28;20210;-89
2021/05/18 02:56:07;;;;;;;3.30;1.17;;;;;;;;;;5057218;28;20197;-90
2021/05/18 02:58:36;;;;;;;1.53;1.00;;;;;;;;;;5056866;28;20199;-90
2021/05/18 03:01:02;;;;;;;1.63;1.10;;;;;;;;;;5056894;28;20202;-89
2021/05/18 03:03:28;;;;;;;1.00;1.00;;;;;;;;;;5056696;28;20203;-89
2021/05/18 03:05:55;;;;;;;1.43;1.20;;;;;;;;;;5056326;28;20213;-89
2021/05/18 03:08:21;;;;;;;1.00;1.00;;;;;;;;;;5074667;28;20202;-90
2021/05/18 03:10:47;;;;;;;1.47;1.20;;;;;;;;;;5056750;28;20199;-90
2021/05/18 03:13:14;;;;;;;2.60;1.13;;;;;;;;;;5056925;28;20203;-90
2021/05/18 03:15:41;;;;;;;0.90;0.90;;;;;;;;;;5056857;28;20210;-89
2021/05/18 03:18:07;;;;;;;1.00;0.90;;;;;;;;;;5056512;28;20259;-89
2021/05/18 03:20:33;;;;;;;1.40;1.17;;;;;;;;;;5073397;28;20187;-89
2021/05/18 03:22:59;;;;;;;0.80;0.77;;;;;;;;;;5056765;28;20202;-88
2021/05/18 03:25:25;;;;;;;1.00;1.00;;;;;;;;;;5056304;28;20233;-89
2021/05/18 03:27:53;;;;;;;2.20;1.10;;;;;;;;;;5074090;28;20743;-90
2021/05/18 03:30:26;;;;;;;1.97;1.10;;;;;;;;;;5073155;28;20650;-89
2021/05/18 03:35:37;;;;;;;1.33;1.23;;;;;;;;;;5056402;28;20237;-87
2021/05/18 03:38:07;;;;;;;1.70;1.20;;;;;;;;;;5056347;28;20195;-88
2021/05/18 03:40:35;;;;;;;1.90;1.20;;;;;;;;;;5074441;28;20206;-91
2021/05/18 03:43:08;;;;;;;2.10;1.37;;;;;;;;;;5056321;28;20230;-90
2021/05/18 03:45:36;;;;;;;1.10;1.10;;;;;;;;;;5056543;28;20205;-88
2021/05/18 03:53:42;;;;;;;2.87;1.60;;;;;;;;;;5076426;28;20230;-89
2021/05/18 04:04:19;;;;;;;2.00;1.57;;;;;;;;;;5076489;28;20243;-92
2021/05/18 04:12:43;;;;;;;3.37;1.40;;;;;;;;;;5080246;28;20216;-93
2021/05/18 04:18:00;;;;;;;1.10;1.03;;;;;;;;;;5080108;28;20239;-89
2021/05/18 04:20:36;;;;;;;1.30;1.17;;;;;;;;;;5080171;28;20251;-90
2021/05/18 04:23:20;;;;;;;1.70;1.17;;;;;;;;;;5079809;28;20198;-89
2021/05/18 04:50:47;;;;;;;0.80;0.80;;;;;;;;;;5076248;28;20767;-91
2021/05/18 04:53:20;;;;;;;1.73;0.90;;;;;;;;;;5059189;28;20182;-92
2021/05/18 05:01:16;;;;;;;1.10;1.00;;;;;;;;;;5076340;28;20213;-91
2021/05/18 05:04:04;;;;;;;1.80;1.10;;;;;;;;;;5077175;28;20182;-90
2021/05/18 05:06:39;;;;;;;1.27;0.90;;;;;;;;;;5076006;28;20248;-90
2021/05/18 05:09:12;;;;;;;3.00;0.80;;;;;;;;;;5075768;28;20225;-90
2021/05/18 05:14:26;;;;;;;0.70;0.70;;;;;;;;;;5076367;28;20248;-92
2021/05/18 05:16:52;;;;;;;1.13;0.80;;;;;;;;;;5077263;28;20233;-92
2021/05/18 05:19:20;;;;;;;1.30;1.20;;;;;;;;;;5075991;28;20213;-91
2021/05/18 05:21:46;;;;;;;0.80;0.70;;;;;;;;;;5075690;28;20256;-89
2021/05/18 05:24:13;;;;;;;2.47;1.00;;;;;;;;;;5075328;28;20207;-91
2021/05/18 05:26:40;;;;;;;0.63;0.63;;;;;;;;;;5075749;28;20222;-92
2021/05/18 05:29:07;;;;;;;1.07;0.70;;;;;;;;;;5075535;28;20233;-91
2021/05/18 05:31:33;;;;;;;0.70;0.70;;;;;;;;;;5075843;28;20206;-93
2021/05/18 05:34:00;;;;;;;1.20;1.10;;;;;;;;;;5077926;28;20246;-94
2021/05/18 05:36:26;;;;;;;1.27;0.70;;;;;;;;;;5080991;28;20557;-93
2021/05/18 05:38:59;;;;;;;0.90;0.90;;;;;;;;;;5076063;28;20191;-92
2021/05/18 05:41:26;;;;;;;2.10;0.70;;;;;;;;;;5075314;28;20190;-90
2021/05/18 05:43:52;;;;;;;1.13;1.10;;;;;;;;;;5075321;28;20553;-89
2021/05/18 05:46:18;;;;;;;1.63;1.20;;;;;;;;;;5077001;28;20233;-90
2021/05/18 05:48:52;;;;;;;0.70;0.70;;;;;;;;;;5076513;28;20206;-93
2021/05/18 05:51:18;;;;;;;1.07;1.07;;;;;;;;;;5075480;28;20260;-93
2021/05/18 05:53:44;;;;;;;1.10;1.00;;;;;;;;;;5075602;28;20237;-92
2021/05/18 05:56:10;;;;;;;1.03;0.80;;;;;;;;;;5076019;28;20199;-93
2021/05/18 05:58:37;;;;;;;2.67;1.10;;;;;;;;;;5075864;28;20209;-93
2021/05/18 06:01:04;;;;;;;0.87;0.87;;;;;;;;;;5075189;28;20206;-94
2021/05/18 06:03:31;;;;;;;1.57;0.97;;;;;;;;;;5075139;28;20221;-92
2021/05/18 06:05:57;;;;;;;1.00;0.90;;;;;;;;;;5075541;28;20235;-93
2021/05/18 06:08:24;;;;;;;1.23;1.13;;;;;;;;;;5074974;28;20214;-93
2021/05/18 06:10:56;;;;;;;0.90;0.90;;;;;;;;;;5075066;28;20199;-92
2021/05/18 06:13:43;;;;;;;0.97;0.97;;;;;;;;;;5075155;28;20195;-92
2021/05/18 06:41:59;;;;;;;3.37;0.97;;;;;;;;;;5054844;28;20240;-86
2021/05/18 06:47:13;;;;;;;2.10;1.10;;;;;;;;;;5057315;28;20776;-88
2021/05/18 06:49:43;;;;;;;1.83;1.13;;;;;;;;;;5056934;28;20276;-91
2021/05/18 06:52:09;;;;;;;0.80;0.80;;;;;;;;;;5056759;28;20226;-92
2021/05/18 06:54:35;;;;;;;0.97;0.90;;;;;;;;;;5074401;28;20211;-92
2021/05/18 06:57:04;;;;;;;1.90;1.20;;;;;;;;;;5074478;28;20554;-91
2021/05/18 07:02:15;;;;;;;1.93;1.80;;;;;;;;;;5056652;28;20247;-89
2021/05/18 07:04:42;;;;;;;1.03;1.00;;;;;;;;;;5074128;28;20186;-86
2021/05/18 07:07:14;;;;;;;1.20;1.10;;;;;;;;;;5056703;28;20195;-92
2021/05/18 07:09:40;;;;;;;1.10;1.10;;;;;;;;;;5056453;28;20234;-89
2021/05/18 07:12:08;;;;;;;1.33;1.13;;;;;;;;;;5074228;28;20245;-89
2021/05/18 07:14:34;;;;;;;2.30;1.30;;;;;;;;;;5056532;28;20532;-91
2021/05/18 07:17:00;;;;;;;1.10;1.10;;;;;;;;;;5074366;28;20214;-89
2021/05/18 07:19:26;;;;;;;1.37;1.27;;;;;;;;;;5056659;28;20194;-90
2021/05/18 07:21:53;;;;;;;1.60;1.33;;;;;;;;;;5056703;28;20206;-90
2021/05/18 07:24:23;;;;;;;3.53;1.77;;;;;;;;;;5056675;28;20186;-88
2021/05/18 07:26:50;;;;;;;2.30;1.43;;;;;;;;;;5056163;28;20229;-91
2021/05/18 07:29:16;;;;;;;2.27;1.30;;;;;;;;;;5056174;28;20217;-89
2021/05/18 07:31:42;;;;;;;4.23;1.53;;;;;;;;;;5074077;28;20597;-89
2021/05/18 07:34:09;;;;;;;3.40;1.50;;;;;;;;;;5055950;28;20594;-91
2021/05/18 07:36:36;;;;;;;1.57;1.40;;;;;;;;;;5055910;28;20209;-88
2021/05/18 07:39:03;;;;;;;3.70;1.70;;;;;;;;;;5055871;28;20194;-86
2021/05/18 07:41:31;;;;;;;4.43;1.40;;;;;;;;;;5055991;28;20202;-88
2021/05/18 07:43:58;;;;;;;2.00;1.53;;;;;;;;;;5056276;28;20252;-89
2021/05/18 07:46:24;;;;;;;2.87;2.10;;;;;;;;;;5056247;28;20183;-87
2021/05/18 07:51:40;;;;;;;2.57;1.70;;;;;;;;;;5055505;28;20230;-90
2021/05/18 07:59:39;;;;;;;3.33;1.60;;;;;;;;;;5073851;28;20688;-88
2021/05/18 08:02:35;;;;;;;3.27;1.60;;;;;;;;;;5056375;28;20560;-86
2021/05/18 08:05:20;;;;;;;5.00;1.73;;;;;;;;;;5093030;28;20210;-87
2021/05/18 08:07:46;;;;;;;1.83;1.47;;;;;;;;;;5093687;28;20209;-88
2021/05/18 08:10:16;;;;;;;2.50;1.60;;;;;;;;;;5093998;28;20255;-86
2021/05/18 08:12:42;;;;;;;1.87;1.40;;;;;;;;;;5075756;28;20719;-88
2021/05/18 08:15:30;;;;;;;2.90;1.67;;;;;;;;;;5076294;28;20239;-85
2021/05/18 08:18:05;;;;;;;2.97;1.67;;;;;;;;;;5093866;28;20206;-88
2021/05/18 08:20:49;;;;;;;1.87;1.33;;;;;;;;;;5093758;28;20181;-87
2021/05/18 09:44:45;;;;;;;1.83;1.10;;;;;;;;;;5078992;28;20221;-93
2021/05/18 10:36:29;;;;;;;3.30;0.97;;;;;;;;;;5068168;28;20172;-89
2021/05/18 10:39:15;;;;;;;2.50;1.00;;;;;;;;;;5067088;28;20187;-91
2021/05/18 10:41:42;;;;;;;1.23;0.80;;;;;;;;;;5066783;28;20247;-91
2021/05/18 10:44:08;;;;;;;1.63;0.90;;;;;;;;;;5066660;28;20215;-89
2021/05/18 10:46:46;;;;;;;2.03;0.90;;;;;;;;;;5066527;28;20191;-89
2021/05/18 10:49:13;;;;;;;1.13;0.83;;;;;;;;;;5066882;27;20198;-86
2021/05/18 10:51:49;;;;;;;4.67;1.37;;;;;;;;;;5066416;28;20191;-87
2021/05/18 10:54:21;;;;;;;1.23;0.77;;;;;;;;;;5066229;28;20183;-88
2021/05/18 10:57:02;;;;;;;2.60;0.87;;;;;;;;;;5066169;28;20206;-90
2021/05/18 10:59:29;;;;;;;2.37;0.67;;;;;;;;;;5066929;28;20551;-87
2021/05/18 11:01:59;;;;;;;1.30;0.80;;;;;;;;;;5067582;28;20179;-90
2021/05/18 11:04:25;;;;;;;2.60;0.93;;;;;;;;;;5067436;28;20234;-85
2021/05/18 11:06:52;;;;;;;1.60;0.90;;;;;;;;;;5066358;28;20614;-84
2021/05/18 11:09:19;;;;;;;2.90;0.73;;;;;;;;;;5066193;28;20203;-92
2021/05/18 11:11:46;;;;;;;0.87;0.80;;;;;;;;;;5066661;28;20207;-93
2021/05/18 11:14:15;;;;;;;1.33;0.70;;;;;;;;;;5066190;28;20739;-85
2021/05/18 11:16:41;;;;;;;2.13;0.80;;;;;;;;;;5067496;28;20694;-90
2021/05/18 11:19:11;;;;;;;0.70;0.70;;;;;;;;;;5066411;28;20730;-88
2021/05/18 11:21:39;;;;;;;1.67;0.60;;;;;;;;;;5066326;28;20247;-87
2021/05/18 11:24:09;;;;;;;1.20;0.60;;;;;;;;;;5065467;27;20202;-89
2021/05/18 11:26:45;;;;;;;1.10;0.40;;;;;;;;;;5065890;28;20218;-86
2021/05/18 11:29:12;;;;;;;1.53;0.70;;;;;;;;;;5066652;28;20215;-92
2021/05/18 11:31:39;;;;;;;0.93;0.87;;;;;;;;;;5065599;28;20195;-88
2021/05/18 11:34:05;;;;;;;2.33;0.90;;;;;;;;;;5066146;28;20218;-91
2021/05/18 11:36:34;;;;;;;0.73;0.60;;;;;;;;;;5057924;28;20187;-89
2021/05/18 11:39:06;;;;;;;0.83;0.83;;;;;;;;;;5052388;28;20556;-85
2021/05/18 11:41:34;;;;;;;1.47;0.90;;;;;;;;;;5052899;28;20215;-91
2021/05/18 11:44:00;;;;;;;1.03;0.60;;;;;;;;;;5053139;28;20219;-86
2021/05/18 11:46:28;;;;;;;0.60;0.30;;;;;;;;;;5051985;28;20590;-89
2021/05/18 11:48:56;;;;;;;0.83;0.60;;;;;;;;;;5052289;28;20727;-86
2021/05/18 11:51:22;;;;;;;1.83;0.60;;;;;;;;;;5052150;28;20239;-86
2021/05/18 11:53:50;;;;;;;1.00;0.50;;;;;;;;;;5051967;28;20252;-83
2021/05/18 11:56:17;;;;;;;1.30;0.60;;;;;;;;;;5053019;28;20215;-85
2021/05/18 11:58:43;;;;;;;0.90;0.53;;;;;;;;;;5051956;28;20639;-87
2021/05/18 12:01:10;;;;;;;1.73;0.70;;;;;;;;;;5051247;28;20199;-83
2021/05/18 12:03:36;;;;;;;0.93;0.77;;;;;;;;;;5051657;28;20210;-90
2021/05/18 12:06:04;;;;;;;1.73;0.60;;;;;;;;;;5052144;28;20238;-90
2021/05/18 12:08:32;;;;;;;0.57;0.57;;;;;;;;;;5053797;28;20191;-93
2021/05/18 12:11:11;;;;;;;0.90;0.60;;;;;;;;;;5053085;28;20671;-91
2021/05/18 12:13:38;;;;;;;1.07;0.87;;;;;;;;;;5052551;28;20191;-92
2021/05/18 12:16:05;;;;;;;2.73;0.73;;;;;;;;;;5052928;28;20248;-92
2021/05/18 12:18:32;;;;;;;2.60;0.53;;;;;;;;;;5052431;28;20233;-90
2021/05/18 12:21:07;;;;;;;0.93;0.70;;;;;;;;;;5052845;28;20535;-88
2021/05/18 12:23:33;;;;;;;3.17;1.10;;;;;;;;;;5054119;28;20215;-87
2021/05/18 12:26:10;;;;;;;0.63;0.40;;;;;;;;;;5051222;28;20227;-90
2021/05/18 12:28:36;;;;;;;1.83;0.50;;;;;;;;;;5053460;28;20253;-90
2021/05/18 12:31:02;;;;;;;0.83;0.50;;;;;;;;;;5053830;28;20236;-92
2021/05/18 12:33:38;;;;;;;2.97;0.93;;;;;;;;;;5052821;28;20203;-93
2021/05/18 12:36:05;;;;;;;1.40;0.50;;;;;;;;;;5053061;28;20668;-89
2021/05/18 12:38:32;;;;;;;1.13;0.57;;;;;;;;;;5052464;28;20562;-92
2021/05/18 12:41:02;;;;;;;3.50;0.60;;;;;;;;;;5052406;28;20184;-91
2021/05/18 12:43:37;;;;;;;0.50;0.50;;;;;;;;;;5051920;28;20199;-91
2021/05/18 12:46:07;;;;;;;2.23;0.60;;;;;;;;;;5051881;28;20211;-91
2021/05/18 12:48:35;;;;;;;1.03;0.67;;;;;;;;;;5050563;28;20195;-87
2021/05/18 12:51:01;;;;;;;0.57;0.57;;;;;;;;;;5052083;28;20187;-86
2021/05/18 12:53:30;;;;;;;0.50;0.50;;;;;;;;;;5051543;28;20199;-89
2021/05/18 12:55:57;;;;;;;3.00;0.70;;;;;;;;;;5052515;28;20188;-89
2021/05/18 12:58:28;;;;;;;1.47;0.80;;;;;;;;;;5051596;28;20191;-89
2021/05/18 13:01:07;;;;;;;0.77;0.60;;;;;;;;;;5051875;28;20199;-91
2021/05/18 13:03:34;;;;;;;2.00;0.93;;;;;;;;;;5053203;28;20210;-92
2021/05/18 13:06:01;;;;;;;0.60;0.60;;;;;;;;;;5052135;28;20207;-91
2021/05/18 13:08:31;;;;;;;0.80;0.70;;;;;;;;;;5051684;28;20562;-89
2021/05/18 13:11:07;;;;;;;2.03;0.90;;;;;;;;;;5051405;28;20248;-91
2021/05/18 13:13:44;;;;;;;0.50;0.50;;;;;;;;;;5051916;28;20195;-88
2021/05/18 13:16:11;;;;;;;2.10;0.50;;;;;;;;;;5051701;28;20192;-88
2021/05/18 13:18:38;;;;;;;0.70;0.60;;;;;;;;;;5051000;28;20200;-89
2021/05/18 13:21:05;;;;;;;2.07;0.90;;;;;;;;;;5052254;28;20200;-92
2021/05/18 13:23:37;;;;;;;1.50;0.70;;;;;;;;;;5050766;28;20214;-88
2021/05/18 13:28:47;;;;;;;1.33;0.37;;;;;;;;;;5052728;28;20201;-89
2021/05/18 13:31:13;;;;;;;0.40;0.40;;;;;;;;;;5052332;28;20632;-90
2021/05/18 13:33:39;;;;;;;0.50;0.50;;;;;;;;;;5050805;28;20207;-88
2021/05/18 13:36:06;;;;;;;3.13;0.63;;;;;;;;;;5050759;28;20709;-87
2021/05/18 13:38:34;;;;;;;1.90;0.60;;;;;;;;;;5051980;28;20532;-85
2021/05/18 13:41:00;;;;;;;0.47;0.40;;;;;;;;;;5052364;28;20215;-86
2021/05/18 13:43:26;;;;;;;0.97;0.60;;;;;;;;;;5051528;28;20199;-90
2021/05/18 13:45:53;;;;;;;2.57;0.80;;;;;;;;;;5050717;28;20268;-90
2021/05/18 13:48:19;;;;;;;2.27;0.70;;;;;;;;;;5050370;28;20196;-92
2021/05/18 13:50:45;;;;;;;1.47;0.60;;;;;;;;;;5050876;28;20569;-92
2021/05/18 13:53:12;;;;;;;0.30;0.30;;;;;;;;;;5050885;28;20180;-89
2021/05/18 13:55:39;;;;;;;1.03;0.50;;;;;;;;;;5052529;28;20176;-92
2021/05/18 13:58:05;;;;;;;1.00;0.97;;;;;;;;;;5050781;28;20191;-90
2021/05/18 14:00:31;;;;;;;1.97;0.53;;;;;;;;;;5051504;28;20180;-90
2021/05/18 14:02:58;;;;;;;0.70;0.70;;;;;;;;;;5050652;28;20560;-89
2021/05/18 14:05:24;;;;;;;1.70;0.70;;;;;;;;;;5050823;28;20227;-90
2021/05/18 14:08:24;;;;;;;2.63;0.70;;;;;;;;;;5052265;28;20187;-88
2021/05/18 14:10:52;;;;;;;0.80;0.60;;;;;;;;;;5051161;28;20207;-90
2021/05/18 14:13:18;;;;;;;0.50;0.50;;;;;;;;;;5050443;28;20195;-91
2021/05/18 14:15:44;;;;;;;2.57;0.90;;;;;;;;;;5051051;28;20212;-93
2021/05/18 14:18:11;;;;;;;0.80;0.80;;;;;;;;;;5051035;28;20651;-88
2021/05/18 14:20:37;;;;;;;2.10;0.90;;;;;;;;;;5051503;28;20207;-91
2021/05/18 14:23:04;;;;;;;2.43;0.77;;;;;;;;;;5051560;28;20188;-87
2021/05/18 14:25:45;;;;;;;0.73;0.73;;;;;;;;;;5050867;28;20252;-92
2021/05/18 14:28:14;;;;;;;2.37;0.90;;;;;;;;;;5054781;28;20638;-94
2021/05/18 14:30:41;;;;;;;2.33;1.10;;;;;;;;;;5052311;28;20191;-90
2021/05/18 14:33:07;;;;;;;1.47;0.73;;;;;;;;;;5050821;28;20192;-90
2021/05/18 14:35:34;;;;;;;0.80;0.80;;;;;;;;;;5066366;27;20188;-88
2021/05/18 14:38:26;;;;;;;0.70;0.70;;;;;;;;;;5157107;27;20229;-94
2021/05/18 14:44:00;;;;;;;2.25;0.70;;;;;;;;;;5134614;27;20188;-88
2021/05/18 14:46:30;;;;;;;2.38;0.70;;;;;;;;;;5154543;27;20283;-87
2021/05/18 14:54:45;;;;;;;2.70;0.70;;;;;;;;;;5049503;28;20209;-92
2021/05/18 14:57:11;;;;;;;0.82;0.70;;;;;;;;;;5049519;28;20256;-89
2021/05/18 14:59:38;;;;;;;0.73;0.73;;;;;;;;;;5138146;27;20188;-90
2021/05/18 15:02:04;;;;;;;1.67;0.80;;;;;;;;;;5154709;27;20707;-89
2021/05/18 15:04:31;;;;;;;1.23;0.80;;;;;;;;;;5074671;27;20268;-88
2021/05/18 15:06:57;;;;;;;0.80;0.80;;;;;;;;;;5049275;28;20245;-88
2021/05/18 15:09:23;;;;;;;0.70;0.70;;;;;;;;;;5040714;28;20551;-88
2021/05/18 15:11:50;;;;;;;2.35;0.60;;;;;;;;;;5032561;28;20181;-87
2021/05/18 15:14:16;;;;;;;0.70;0.70;;;;;;;;;;5033823;28;20550;-88
2021/05/18 15:16:43;;;;;;;0.80;0.55;;;;;;;;;;5032638;28;20547;-87
2021/05/18 15:19:11;;;;;;;1.08;0.85;;;;;;;;;;5033087;28;20196;-92
2021/05/18 15:21:37;;;;;;;1.30;0.70;;;;;;;;;;5033624;27;20636;-91
2021/05/18 15:24:05;;;;;;;2.22;0.95;;;;;;;;;;5036355;28;20208;-91
2021/05/18 15:26:31;;;;;;;1.95;0.88;;;;;;;;;;5056184;28;20219;-88
2021/05/18 15:28:57;;;;;;;0.80;0.80;;;;;;;;;;5035701;28;20200;-85
2021/05/18 15:31:23;;;;;;;1.95;0.65;;;;;;;;;;5036859;28;20539;-90
2021/05/18 15:33:50;;;;;;;1.02;0.60;;;;;;;;;;5036180;28;20183;-89
2021/05/18 15:36:17;;;;;;;2.10;0.95;;;;;;;;;;5035911;28;20200;-88
2021/05/18 15:38:45;;;;;;;0.75;0.75;;;;;;;;;;5036785;28;20655;-94
2021/05/18 15:41:12;;;;;;;0.60;0.60;;;;;;;;;;5041267;28;20244;-92
2021/05/18 15:43:39;;;;;;;1.02;0.70;;;;;;;;;;5053823;28;20208;-89
2021/05/18 15:46:05;;;;;;;2.05;0.60;;;;;;;;;;5035725;28;20260;-89
2021/05/18 15:48:32;;;;;;;0.50;0.47;;;;;;;;;;5036478;28;20192;-89
2021/05/18 15:50:59;;;;;;;0.73;0.73;;;;;;;;;;5045208;28;20612;-86
2021/05/18 15:53:25;;;;;;;0.80;0.80;;;;;;;;;;5076228;28;20241;-95
2021/05/18 15:55:52;;;;;;;0.68;0.50;;;;;;;;;;5077113;28;20780;-94
2021/05/18 15:58:18;;;;;;;0.82;0.50;;;;;;;;;;5076540;28;20709;-88
2021/05/18 16:00:47;;;;;;;0.40;0.40;;;;;;;;;;5076381;28;20246;-89
2021/05/18 16:03:13;;;;;;;0.90;0.47;;;;;;;;;;5075857;28;20198;-92
2021/05/18 16:05:40;;;;;;;0.80;0.80;;;;;;;;;;5076494;28;20245;-93
2021/05/18 16:08:08;;;;;;;1.80;0.60;;;;;;;;;;5075721;28;20215;-92
2021/05/18 16:10:35;;;;;;;0.60;0.60;;;;;;;;;;5076992;28;20251;-93
2021/05/18 16:13:01;;;;;;;0.83;0.43;;;;;;;;;;5077524;28;20211;-92
2021/05/18 16:15:27;;;;;;;0.40;0.40;;;;;;;;;;5076019;28;20190;-89
2021/05/18 16:17:54;;;;;;;2.30;0.40;;;;;;;;;;5094389;28;20236;-88
2021/05/18 16:20:20;;;;;;;0.77;0.60;;;;;;;;;;5093248;28;20210;-90
2021/05/18 16:22:46;;;;;;;0.60;0.60;;;;;;;;;;5076211;28;20218;-93
2021/05/18 16:25:14;;;;;;;3.60;0.60;;;;;;;;;;5072872;27;20231;-89
2021/05/18 16:27:41;;;;;;;0.50;0.50;;;;;;;;;;5071954;28;20222;-90
2021/05/18 16:30:07;;;;;;;1.93;0.87;;;;;;;;;;5072223;28;20202;-90
2021/05/18 16:32:34;;;;;;;1.60;1.07;;;;;;;;;;5072409;28;20191;-90
2021/05/18 16:35:00;;;;;;;1.17;0.57;;;;;;;;;;5073175;28;20294;-91
2021/05/18 16:37:27;;;;;;;1.63;0.80;;;;;;;;;;5072230;28;20726;-90
2021/05/18 16:39:53;;;;;;;0.67;0.67;;;;;;;;;;5072119;28;20236;-90
2021/05/18 16:42:20;;;;;;;2.37;1.40;;;;;;;;;;5072374;28;20243;-91
2021/05/18 16:44:46;;;;;;;2.73;0.90;;;;;;;;;;5072368;28;20243;-91
2021/05/18 16:47:12;;;;;;;0.80;0.60;;;;;;;;;;5072187;27;20207;-90
2021/05/18 16:49:39;;;;;;;0.67;0.50;;;;;;;;;;5073570;28;20186;-89
2021/05/18 16:52:05;;;;;;;1.80;0.53;;;;;;;;;;5071372;28;20198;-88
2021/05/18 16:54:31;;;;;;;0.67;0.30;;;;;;;;;;5071681;28;20195;-91
2021/05/18 16:56:57;;;;;;;0.30;0.30;;;;;;;;;;5071960;28;20191;-93
2021/05/18 16:59:24;;;;;;;0.20;0.20;;;;;;;;;;5071665;28;20191;-88
2021/05/18 17:01:51;;;;;;;0.20;0.20;;;;;;;;;;5072798;28;20195;-90
2021/05/18 17:04:17;;;;;;;0.10;0.10;;;;;;;;;;5071783;28;20191;-92
2021/05/18 17:06:44;;;;;;;1.80;0.20;;;;;;;;;;5071432;28;20662;-86
2021/05/18 17:09:11;;;;;;;0.50;0.50;;;;;;;;;;5071553;28;20674;-88
2021/05/18 17:11:39;;;;;;;0.87;0.40;;;;;;;;;;5071718;28;20231;-91
2021/05/18 17:14:05;;;;;;;0.40;0.40;;;;;;;;;;5072285;28;20206;-91
2021/05/18 17:16:32;;;;;;;0.60;0.60;;;;;;;;;;5072300;28;20635;-91
2021/05/18 17:18:58;;;;;;;2.33;0.77;;;;;;;;;;5072684;28;20236;-90
2021/05/18 17:21:25;;;;;;;0.73;0.50;;;;;;;;;;5073950;28;20175;-93
2021/05/18 17:23:51;;;;;;;1.07;0.53;;;;;;;;;;5071801;28;20243;-91
2021/05/18 17:26:18;;;;;;;0.67;0.67;;;;;;;;;;5071198;27;20226;-90
2021/05/18 17:28:44;;;;;;;2.73;0.70;;;;;;;;;;5072599;28;20214;-93
2021/05/18 17:31:12;;;;;;;2.87;0.87;;;;;;;;;;5073353;28;20192;-92
2021/05/18 17:33:39;;;;;;;0.40;0.40;;;;;;;;;;5072703;28;20187;-93
2021/05/18 17:36:05;;;;;;;0.80;0.80;;;;;;;;;;5073485;28;20187;-91
2021/05/18 17:38:32;;;;;;;0.37;0.37;;;;;;;;;;5072963;28;20187;-92
2021/05/18 17:40:58;;;;;;;0.93;0.53;;;;;;;;;;5072358;28;20187;-93
2021/05/18 17:43:24;;;;;;;1.07;0.50;;;;;;;;;;5071436;28;20199;-92
2021/05/18 17:45:50;;;;;;;0.63;0.50;;;;;;;;;;5072378;28;20202;-91
2021/05/18 17:48:16;;;;;;;0.70;0.50;;;;;;;;;;5071986;28;20216;-91
2021/05/18 17:50:43;;;;;;;0.40;0.40;;;;;;;;;;5072428;28;20217;-91
2021/05/18 17:53:09;;;;;;;0.40;0.40;;;;;;;;;;5071478;28;20198;-92
2021/05/18 17:55:36;;;;;;;1.03;0.50;;;;;;;;;;5070965;28;20187;-91
2021/05/18 17:58:02;;;;;;;0.43;0.43;;;;;;;;;;5071555;28;20207;-91
2021/05/18 18:00:28;;;;;;;0.73;0.60;;;;;;;;;;5072875;28;20209;-90
2021/05/18 18:02:54;;;;;;;0.97;0.40;;;;;;;;;;5070917;28;20198;-91
2021/05/18 18:05:21;;;;;;;0.40;0.40;;;;;;;;;;5071808;28;20214;-91
2021/05/18 18:07:48;;;;;;;0.97;0.60;;;;;;;;;;5071754;28;20198;-92
2021/05/18 18:10:15;;;;;;;2.07;0.50;;;;;;;;;;5071768;28;20206;-92
2021/05/18 18:12:41;;;;;;;0.40;0.40;;;;;;;;;;5071122;28;20634;-91
2021/05/18 18:15:08;;;;;;;0.60;0.60;;;;;;;;;;5070996;28;20590;-91
2021/05/18 18:17:34;;;;;;;0.50;0.50;;;;;;;;;;5072124;28;20510;-91
2021/05/18 18:20:01;;;;;;;0.60;0.60;;;;;;;;;;5071323;28;20251;-90
2021/05/18 18:22:27;;;;;;;0.50;0.50;;;;;;;;;;5070827;28;20657;-92
2021/05/18 18:24:54;;;;;;;0.73;0.70;;;;;;;;;;5070289;27;20255;-89
2021/05/18 18:27:22;;;;;;;0.60;0.60;;;;;;;;;;5070053;28;20293;-92
2021/05/18 18:29:48;;;;;;;2.47;0.60;;;;;;;;;;5071784;28;20171;-91
2021/05/18 18:32:14;;;;;;;0.57;0.57;;;;;;;;;;5071229;28;20247;-91
2021/05/18 18:34:41;;;;;;;1.17;0.70;;;;;;;;;;5070565;28;20235;-92
2021/05/18 18:37:08;;;;;;;1.07;0.53;;;;;;;;;;5070605;28;20199;-91
2021/05/18 18:39:35;;;;;;;0.60;0.60;;;;;;;;;;5070463;28;20207;-91
2021/05/18 18:42:02;;;;;;;0.80;0.80;;;;;;;;;;5070731;28;20191;-92
2021/05/18 18:44:28;;;;;;;0.60;0.60;;;;;;;;;;5071840;28;20194;-92
2021/05/18 18:46:54;;;;;;;0.73;0.73;;;;;;;;;;5074077;28;20659;-92
2021/05/18 18:49:24;;;;;;;0.97;0.97;;;;;;;;;;5074625;28;20710;-92
2021/05/18 18:51:50;;;;;;;1.80;1.03;;;;;;;;;;5074805;28;20187;-92
2021/05/18 18:54:16;;;;;;;1.03;0.97;;;;;;;;;;5074976;28;20607;-92
2021/05/18 18:56:43;;;;;;;0.70;0.70;;;;;;;;;;5074291;28;20195;-92
2021/05/18 18:59:10;;;;;;;2.00;0.80;;;;;;;;;;5074271;28;20198;-93
2021/05/18 19:01:39;;;;;;;0.80;0.80;;;;;;;;;;5074192;28;20216;-91
2021/05/18 19:04:10;;;;;;;0.70;0.70;;;;;;;;;;5074228;28;20213;-92
2021/05/18 19:06:41;;;;;;;0.60;0.60;;;;;;;;;;5074266;28;20203;-91